Time;durP1;ratioP1;P1;durP2;ratioP2;P2;SDS_P1;SDS_P2;PMS_P1;PMS_P2;Temp;Humidity;BMP_temperature;BMP_pressure;BME280_temperature;BME280_humidity;BME280_pressure;Samples;Min_cycle;Max_cycle;Signal;HPM_P1;HPM_P2
2021/09/03 00:01:27;;;;;;;;;14.00;11.75;;;;;24.08;44.77;101602.09;5069668;28;52218;-58
2021/09/03 00:03:53;;;;;;;;;15.75;13.00;;;;;24.09;44.35;101614.88;5080029;27;51033;-59
2021/09/03 00:06:18;;;;;;;;;15.25;13.75;;;;;24.08;44.39;101610.41;5091314;27;51104;-58
2021/09/03 00:08:43;;;;;;;;;12.50;10.50;;;;;24.08;44.83;101604.03;5078655;27;51107;-58
2021/09/03 00:11:10;;;;;;;;;14.00;12.00;;;;;24.08;44.78;101612.34;5078500;27;51289;-58
2021/09/03 00:13:36;;;;;;;;;15.00;14.75;;;;;24.08;44.59;101612.34;5086084;27;51896;-59
2021/09/03 00:16:01;;;;;;;;;11.75;10.50;;;;;24.07;44.36;101610.59;5089015;27;51153;-58
2021/09/03 00:18:26;;;;;;;;;15.25;10.75;;;;;24.07;44.58;101610.59;5093343;27;51001;-58
2021/09/03 00:20:51;;;;;;;;;16.00;13.00;;;;;24.05;44.58;101594.25;5094802;27;50933;-58
2021/09/03 00:23:17;;;;;;;;;17.25;12.75;;;;;24.05;44.69;101594.25;5094799;27;51181;-58
2021/09/03 00:25:42;;;;;;;;;13.50;10.00;;;;;24.04;44.54;101589.78;5091954;27;51308;-59
2021/09/03 00:28:08;;;;;;;;;12.25;12.00;;;;;24.05;44.73;101596.16;5081788;27;51692;-59
2021/09/03 00:30:33;;;;;;;;;14.75;13.75;;;;;24.05;44.63;101604.47;5084993;27;51428;-58
2021/09/03 00:32:58;;;;;;;;;13.25;13.25;;;;;24.03;44.43;101601.94;5085518;27;51021;-59
2021/09/03 00:35:24;;;;;;;;;15.25;13.75;;;;;24.02;44.70;101599.41;5077736;27;51254;-58
2021/09/03 00:37:49;;;;;;;;;15.75;13.00;;;;;24.01;44.98;101598.53;5077158;27;51142;-58
2021/09/03 00:40:14;;;;;;;;;14.75;13.25;;;;;24.02;44.67;101585.56;5093973;27;51044;-57
2021/09/03 00:42:40;;;;;;;;;16.00;11.00;;;;;24.02;44.77;101583.63;5095669;27;51249;-57
2021/09/03 00:45:06;;;;;;;;;16.00;14.75;;;;;24.03;45.11;101590.00;5093809;27;51040;-57
2021/09/03 00:47:31;;;;;;;;;17.25;15.50;;;;;24.01;44.64;101579.19;5085632;27;51211;-57
2021/09/03 00:49:57;;;;;;;;;13.50;12.00;;;;;23.99;44.83;101578.56;5080002;27;51085;-56
2021/09/03 00:52:22;;;;;;;;;18.00;14.50;;;;;23.98;44.61;101571.34;5081741;27;52135;-57
2021/09/03 00:54:48;;;;;;;;;18.00;16.25;;;;;23.98;44.98;101574.09;5075825;27;51094;-55
2021/09/03 00:57:14;;;;;;;;;16.75;14.25;;;;;23.97;45.13;101571.53;5078603;27;51171;-57
2021/09/03 00:59:39;;;;;;;;;16.00;14.25;;;;;23.95;44.94;101569.00;5088706;27;51036;-56
2021/09/03 01:02:05;;;;;;;;;16.00;14.75;;;;;23.95;45.15;101574.53;5081094;27;51108;-56
2021/09/03 01:04:30;;;;;;;;;17.50;15.25;;;;;23.93;44.84;101565.63;5075574;27;51423;-57
2021/09/03 01:06:56;;;;;;;;;18.25;17.00;;;;;23.93;44.82;101567.56;5090700;27;51194;-57
2021/09/03 01:09:21;;;;;;;;;17.75;16.75;;;;;23.92;45.15;101565.84;5086548;27;51212;-56
2021/09/03 01:11:47;;;;;;;;;17.50;15.25;;;;;23.90;44.76;101553.09;5075555;27;53695;-57
2021/09/03 01:14:12;;;;;;;;;16.00;15.00;;;;;23.89;45.14;101554.19;5090270;27;51117;-56
2021/09/03 01:16:38;;;;;;;;;17.50;14.75;;;;;23.88;45.13;101559.94;5094270;27;51039;-57
2021/09/03 01:19:03;;;;;;;;;13.50;13.00;;;;;23.88;44.94;101562.72;5075441;27;51512;-56
2021/09/03 01:21:29;;;;;;;;;16.75;14.50;;;;;23.87;45.24;101561.03;5075385;27;52150;-57
2021/09/03 01:23:54;;;;;;;;;19.75;16.75;;;;;23.84;45.34;101554.00;5087733;27;51143;-57
2021/09/03 01:26:20;;;;;;;;;16.50;15.00;;;;;23.84;45.25;101542.09;5076185;27;51195;-57
2021/09/03 01:28:46;;;;;;;;;17.75;17.50;;;;;23.84;45.25;101550.38;5086084;27;51314;-56
2021/09/03 01:31:12;;;;;;;;;20.25;16.00;;;;;23.82;45.35;101545.09;5082245;27;51987;-56
2021/09/03 01:33:37;;;;;;;;;14.75;14.50;;;;;23.81;45.18;101543.41;5076813;27;51054;-56
2021/09/03 01:36:03;;;;;;;;;16.25;12.00;;;;;23.81;45.21;101542.56;5078945;27;51057;-56
2021/09/03 01:38:28;;;;;;;;;19.00;15.50;;;;;23.80;45.50;101536.19;5095583;27;50898;-57
2021/09/03 01:40:54;;;;;;;;;14.75;12.50;;;;;23.80;45.49;101543.63;5096626;27;51886;-57
2021/09/03 01:43:19;;;;;;;;;15.25;14.00;;;;;23.79;45.29;101540.03;5098689;27;51130;-56
2021/09/03 01:45:44;;;;;;;;;17.25;16.25;;;;;23.77;45.59;101539.41;5098404;27;51136;-56
2021/09/03 01:48:10;;;;;;;;;18.50;15.00;;;;;23.78;44.94;101534.72;5092986;27;51283;-57
2021/09/03 01:50:36;;;;;;;;;16.25;12.25;;;;;23.76;45.17;101536.84;5088203;27;52063;-57
2021/09/03 01:53:02;;;;;;;;;17.00;14.75;;;;;23.75;45.11;101541.53;5078850;27;51127;-57
2021/09/03 01:55:27;;;;;;;;;14.25;14.00;;;;;23.73;45.37;101540.06;5079861;27;51217;-56
2021/09/03 01:57:52;;;;;;;;;18.75;17.50;;;;;23.73;45.15;101543.69;5061644;27;51118;-56
2021/09/03 02:00:18;;;;;;;;;16.75;16.75;;;;;23.72;45.56;101549.44;5078348;27;52024;-57
2021/09/03 02:02:43;;;;;;;;;20.00;17.75;;;;;23.71;45.29;101539.47;5078690;27;51107;-57
2021/09/03 02:05:09;;;;;;;;;16.50;16.50;;;;;23.70;45.55;101535.00;5090114;27;51249;-57
2021/09/03 02:07:34;;;;;;;;;18.00;16.50;;;;;23.69;45.33;101531.41;5085394;27;51134;-56
2021/09/03 02:10:00;;;;;;;;;19.50;18.00;;;;;23.69;45.45;101536.09;5078276;27;52457;-57
2021/09/03 02:12:25;;;;;;;;;16.00;14.50;;;;;23.67;45.59;101530.78;5082693;27;52263;-57
2021/09/03 02:14:51;;;;;;;;;19.50;16.25;;;;;23.66;45.67;101525.47;5084582;27;51074;-57
2021/09/03 02:17:16;;;;;;;;;17.00;17.00;;;;;23.66;45.48;101522.72;5079786;27;51015;-56
2021/09/03 02:19:42;;;;;;;;;16.25;16.00;;;;;23.64;45.55;101522.91;5077974;27;51012;-56
2021/09/03 02:22:07;;;;;;;;;19.75;16.25;;;;;23.63;45.64;101518.47;5078237;27;51150;-56
2021/09/03 02:24:32;;;;;;;;;23.00;18.50;;;;;23.63;45.50;101524.00;5078474;27;51126;-56
2021/09/03 02:26:58;;;;;;;;;17.75;16.50;;;;;23.62;45.97;101522.31;5082212;27;51167;-57
2021/09/03 02:29:23;;;;;;;;;18.50;16.75;;;;;23.61;45.88;101521.47;5077936;27;51830;-57
2021/09/03 02:31:49;;;;;;;;;18.00;15.50;;;;;23.60;45.91;101525.31;5060009;27;51165;-56
2021/09/03 02:34:14;;;;;;;;;19.75;18.00;;;;;23.60;45.69;101535.53;5077653;27;51662;-57
2021/09/03 02:36:39;;;;;;;;;22.25;15.75;;;;;23.59;45.80;101544.91;5061251;28;51312;-57
2021/09/03 02:39:06;;;;;;;;;19.25;16.00;;;;;23.57;45.28;101531.25;5085486;27;51507;-58
2021/09/03 02:41:31;;;;;;;;;22.00;18.00;;;;;23.57;45.77;101535.94;5078604;27;51055;-57
2021/09/03 02:43:56;;;;;;;;;17.50;16.50;;;;;23.56;45.95;101525.97;5091191;27;51097;-57
2021/09/03 02:46:22;;;;;;;;;17.25;16.00;;;;;23.55;45.67;101524.25;5063489;28;51687;-57
2021/09/03 02:48:47;;;;;;;;;22.50;21.25;;;;;23.54;45.77;101520.63;5076939;27;51000;-57
2021/09/03 02:51:12;;;;;;;;;18.50;16.25;;;;;23.53;45.93;101518.94;5089697;27;51224;-57
2021/09/03 02:53:38;;;;;;;;;17.75;15.75;;;;;23.54;45.75;101519.78;5097607;27;51108;-57
2021/09/03 02:56:03;;;;;;;;;22.25;18.75;;;;;23.52;45.85;101521.94;5095995;27;50953;-57
2021/09/03 02:58:29;;;;;;;;;18.00;15.75;;;;;23.52;45.76;101519.19;5091273;27;51368;-57
2021/09/03 03:00:54;;;;;;;;;17.25;15.50;;;;;23.50;45.28;101513.88;5096975;27;51154;-57
2021/09/03 03:03:19;;;;;;;;;18.50;18.00;;;;;23.50;45.65;101515.78;5095402;27;53468;-57
2021/09/03 03:05:45;;;;;;;;;23.75;19.25;;;;;23.49;45.72;101516.88;5085875;27;51153;-57
2021/09/03 03:08:10;;;;;;;;;18.00;14.50;;;;;23.47;45.51;101525.41;5078832;27;51719;-57
2021/09/03 03:10:35;;;;;;;;;16.00;14.75;;;;;23.47;45.56;101514.34;5097348;27;51081;-57
2021/09/03 03:13:09;;;;;;;;;18.25;16.25;;;;;23.46;45.86;101509.03;5095065;27;51082;-57
2021/09/03 03:15:35;;;;;;;;;23.00;20.00;;;;;23.45;45.94;101512.88;5095446;27;50972;-57
2021/09/03 03:18:00;;;;;;;;;18.50;17.50;;;;;23.44;45.70;101505.63;5087018;27;51133;-57
2021/09/03 03:20:26;;;;;;;;;18.00;16.50;;;;;23.42;45.77;101511.38;5088338;27;51395;-57
2021/09/03 03:22:51;;;;;;;;;20.50;17.50;;;;;23.41;45.60;101503.31;5078811;27;51554;-57
2021/09/03 03:25:16;;;;;;;;;21.00;18.50;;;;;23.40;45.57;101508.00;5080811;27;50955;-57
2021/09/03 03:27:42;;;;;;;;;17.50;17.50;;;;;23.40;45.31;101504.41;5090929;27;51064;-56
2021/09/03 03:30:08;;;;;;;;;16.75;16.75;;;;;23.39;45.80;101509.09;5095947;27;51076;-57
2021/09/03 03:32:34;;;;;;;;;18.75;18.75;;;;;23.39;45.46;101505.47;5095493;27;51163;-57
2021/09/03 03:34:59;;;;;;;;;21.00;17.75;;;;;23.37;45.72;101493.81;5095588;27;51183;-57
2021/09/03 03:37:25;;;;;;;;;19.00;18.50;;;;;23.35;45.84;101494.03;5076914;27;55447;-56
2021/09/03 03:39:50;;;;;;;;;21.25;18.25;;;;;23.34;45.65;101486.78;5085024;27;51107;-57
2021/09/03 03:42:15;;;;;;;;;16.25;16.25;;;;;23.34;45.47;101486.78;5078362;27;51101;-57
2021/09/03 03:44:41;;;;;;;;;17.50;16.75;;;;;23.32;45.96;101489.78;5077032;27;51164;-57
2021/09/03 03:47:06;;;;;;;;;22.00;18.00;;;;;23.31;45.99;101484.47;5076731;27;51110;-57
2021/09/03 03:49:31;;;;;;;;;20.75;19.00;;;;;23.30;45.66;101491.94;5077184;27;51138;-57
2021/09/03 03:51:57;;;;;;;;;20.25;16.75;;;;;23.30;45.78;101491.09;5088435;27;51048;-57
2021/09/03 03:54:22;;;;;;;;;18.75;17.25;;;;;23.29;45.67;101483.88;5077141;27;51159;-56
2021/09/03 03:56:47;;;;;;;;;22.00;19.25;;;;;23.29;45.73;101492.16;5083186;27;51801;-57
2021/09/03 03:59:13;;;;;;;;;22.00;19.25;;;;;23.27;45.56;101497.91;5058460;28;51146;-56
2021/09/03 04:01:38;;;;;;;;;26.25;21.75;;;;;23.27;45.34;101500.69;5077783;27;51204;-57
2021/09/03 04:04:03;;;;;;;;;23.00;19.00;;;;;23.27;46.03;101508.13;5093658;27;51047;-56
2021/09/03 04:06:29;;;;;;;;;18.50;18.50;;;;;23.25;45.73;101502.84;5088546;27;51814;-57
2021/09/03 04:08:54;;;;;;;;;19.25;17.00;;;;;23.25;45.76;101499.22;5096263;27;51339;-56
2021/09/03 04:11:19;;;;;;;;;23.75;21.25;;;;;23.24;45.43;101494.75;5095271;27;51072;-57
2021/09/03 04:13:45;;;;;;;;;22.75;19.00;;;;;23.22;45.87;101496.88;5080022;27;51207;-57
2021/09/03 04:16:10;;;;;;;;;18.00;18.00;;;;;23.21;45.75;101503.50;5087332;27;54077;-57
2021/09/03 04:18:38;;;;;;;;;25.50;20.75;;;;;23.20;46.05;101499.03;5076421;27;51063;-56
2021/09/03 04:21:05;;;;;;;;;19.50;18.50;;;;;23.19;45.85;101500.09;5079073;27;51002;-57
2021/09/03 04:23:31;;;;;;;;;20.50;19.50;;;;;23.19;45.41;101505.63;5079816;27;51236;-57
2021/09/03 04:25:56;;;;;;;;;24.25;21.50;;;;;23.17;45.63;101494.81;5094046;27;52115;-57
2021/09/03 04:28:22;;;;;;;;;21.50;16.75;;;;;23.17;45.88;101496.72;5085497;27;51214;-57
2021/09/03 04:30:47;;;;;;;;;19.50;19.00;;;;;23.16;45.94;101495.88;5092301;27;51103;-57
2021/09/03 04:33:12;;;;;;;;;22.25;19.25;;;;;23.14;45.78;101500.78;5093897;27;51144;-57
2021/09/03 04:35:38;;;;;;;;;23.25;19.50;;;;;23.14;45.59;101491.66;5094213;27;51702;-57
2021/09/03 04:38:03;;;;;;;;;16.25;13.25;;;;;23.13;46.03;101496.31;5095554;27;51092;-58
2021/09/03 04:40:28;;;;;;;;;22.75;20.00;;;;;23.12;45.87;101497.38;5088275;27;51127;-58
2021/09/03 04:42:54;;;;;;;;;19.00;17.75;;;;;23.13;45.52;101495.47;5076346;27;51339;-58
2021/09/03 04:45:19;;;;;;;;;22.50;20.25;;;;;23.10;45.42;101496.78;5075525;27;52265;-58
2021/09/03 04:47:45;;;;;;;;;19.50;18.25;;;;;23.10;45.44;101496.78;5075815;27;51087;-57
2021/09/03 04:50:11;;;;;;;;;20.00;17.50;;;;;23.10;45.61;101501.44;5077000;27;51098;-58
2021/09/03 04:52:38;;;;;;;;;23.25;18.25;;;;;23.08;45.66;101487.00;5091952;27;51115;-57
2021/09/03 04:55:04;;;;;;;;;20.50;17.50;;;;;23.07;45.98;101488.09;5089591;27;51077;-57
2021/09/03 04:57:29;;;;;;;;;19.00;17.00;;;;;23.06;45.46;101481.72;5088038;27;51071;-59
2021/09/03 04:59:54;;;;;;;;;20.25;19.00;;;;;23.05;46.04;101488.31;5077668;27;51030;-57
2021/09/03 05:02:19;;;;;;;;;20.25;20.25;;;;;23.03;45.53;101477.50;5076501;27;51307;-56
2021/09/03 05:04:46;;;;;;;;;25.25;20.50;;;;;23.03;45.39;101480.25;5075488;27;52120;-55
2021/09/03 05:07:11;;;;;;;;;18.75;18.75;;;;;23.03;45.40;101477.50;5093166;27;51391;-57
2021/09/03 05:09:36;;;;;;;;;23.25;20.25;;;;;23.01;45.46;101478.75;5093962;27;51033;-57
2021/09/03 05:12:03;;;;;;;;;25.50;19.75;;;;;23.00;45.79;101477.91;5085304;27;51469;-57
2021/09/03 05:14:29;;;;;;;;;22.00;21.00;;;;;23.00;45.97;101479.84;5069208;27;53310;-56
2021/09/03 05:16:54;;;;;;;;;25.00;19.50;;;;;22.98;45.78;101474.53;5092568;27;51047;-56
2021/09/03 05:19:20;;;;;;;;;28.25;24.75;;;;;22.98;45.96;101471.78;5093360;27;51209;-56
2021/09/03 05:21:45;;;;;;;;;22.00;18.50;;;;;22.97;45.55;101472.00;5087089;27;51151;-55
2021/09/03 05:24:11;;;;;;;;;21.00;16.75;;;;;22.96;46.07;101475.84;5095248;27;51053;-56
2021/09/03 05:26:36;;;;;;;;;24.75;23.00;;;;;22.95;45.60;101486.06;5089231;27;51271;-56
2021/09/03 05:29:01;;;;;;;;;25.00;21.50;;;;;22.94;45.45;101487.13;5075772;27;51321;-55
2021/09/03 05:31:27;;;;;;;;;24.00;22.25;;;;;22.93;45.81;101485.44;5078435;27;50887;-61
2021/09/03 05:33:52;;;;;;;;;21.75;21.50;;;;;22.93;45.45;101492.88;5082514;27;51882;-55
2021/09/03 05:36:17;;;;;;;;;22.50;21.00;;;;;22.92;45.47;101489.25;5074301;27;51239;-56
2021/09/03 05:38:43;;;;;;;;;25.50;24.25;;;;;22.91;45.80;101490.31;5093451;27;51182;-56
2021/09/03 05:41:08;;;;;;;;;22.25;22.00;;;;;22.90;45.66;101490.53;5082995;27;51092;-56
2021/09/03 05:43:33;;;;;;;;;32.00;23.25;;;;;22.89;46.19;101484.16;5083200;27;51536;-57
2021/09/03 05:45:59;;;;;;;;;28.25;23.25;;;;;22.88;45.98;101490.75;5083867;27;51356;-58
2021/09/03 05:48:24;;;;;;;;;25.50;24.75;;;;;22.88;46.35;101496.28;5093582;27;51662;-56
2021/09/03 05:50:49;;;;;;;;;29.25;27.75;;;;;22.89;46.25;101488.84;5093157;27;50911;-57
2021/09/03 05:53:15;;;;;;;;;29.75;25.25;;;;;22.87;45.82;101497.38;5075078;27;51601;-58
2021/09/03 05:55:40;;;;;;;;;28.75;25.25;;;;;22.87;45.62;101499.28;5093097;27;51004;-57
2021/09/03 05:58:06;;;;;;;;;25.00;23.50;;;;;22.84;46.11;101514.38;5087723;27;51170;-57
2021/09/03 06:00:31;;;;;;;;;25.25;23.50;;;;;22.83;46.18;101511.81;5087357;27;51145;-56
2021/09/03 06:02:58;;;;;;;;;27.25;25.00;;;;;22.80;45.71;101504.81;5088635;27;53269;-56
2021/09/03 06:05:24;;;;;;;;;25.50;23.50;;;;;22.78;46.18;101504.19;5091421;27;51151;-55
2021/09/03 06:07:49;;;;;;;;;24.75;19.75;;;;;22.78;46.90;101501.41;5088328;27;51364;-56
2021/09/03 06:10:14;;;;;;;;;24.00;18.75;;;;;22.78;46.59;101509.72;5080690;27;50974;-55
2021/09/03 06:12:40;;;;;;;;;17.75;17.25;;;;;22.81;46.55;101505.66;5075080;27;51892;-55
2021/09/03 06:15:07;;;;;;;;;20.50;19.75;;;;;22.83;46.12;101506.31;5079175;27;51329;-55
2021/09/03 06:17:33;;;;;;;;;24.50;21.25;;;;;22.85;46.33;101512.47;5089234;27;51162;-55
2021/09/03 06:19:58;;;;;;;;;25.00;19.25;;;;;22.84;46.71;101511.63;5089492;27;50939;-57
2021/09/03 06:22:24;;;;;;;;;21.25;19.00;;;;;22.85;46.33;101505.03;5096216;27;50929;-57
2021/09/03 06:24:50;;;;;;;;;21.25;19.00;;;;;22.87;46.23;101502.88;5091161;27;51445;-57
2021/09/03 06:27:16;;;;;;;;;20.00;18.25;;;;;22.87;46.58;101508.41;5093424;27;51025;-57
2021/09/03 06:29:42;;;;;;;;;21.00;19.25;;;;;22.88;47.07;101510.09;5086515;27;51397;-58
2021/09/03 06:32:18;;;;;;;;;20.00;18.50;;;;;22.88;47.02;101501.81;5086282;27;51739;-57
2021/09/03 06:34:49;;;;;;;;;19.00;17.75;;;;;22.89;47.26;101500.75;5077264;27;51040;-56
2021/09/03 06:37:15;;;;;;;;;23.75;21.00;;;;;22.90;46.44;101496.06;5084235;27;50997;-51
2021/09/03 06:39:42;;;;;;;;;21.50;19.50;;;;;22.91;47.11;101495.00;5095568;27;50958;-56
2021/09/03 06:42:08;;;;;;;;;16.75;14.50;;;;;22.90;46.96;101493.31;5084213;27;52417;-54
2021/09/03 06:44:34;;;;;;;;;19.75;17.00;;;;;22.90;47.36;101493.31;5081563;27;52718;-55
2021/09/03 06:46:59;;;;;;;;;20.75;17.75;;;;;22.91;47.17;101493.06;5088738;27;51407;-55
2021/09/03 06:49:25;;;;;;;;;25.25;21.25;;;;;22.92;46.86;101493.91;5084936;27;51155;-53
2021/09/03 06:51:50;;;;;;;;;21.25;17.50;;;;;22.93;46.81;101496.50;5089332;27;51355;-55
2021/09/03 06:54:16;;;;;;;;;19.00;18.25;;;;;22.94;46.61;101500.09;5081788;27;52138;-56
2021/09/03 06:56:42;;;;;;;;;22.00;20.00;;;;;22.95;46.82;101502.63;5089640;27;50995;-56
2021/09/03 06:59:07;;;;;;;;;24.50;18.50;;;;;22.95;46.72;101505.38;5096282;27;51131;-55
2021/09/03 07:01:33;;;;;;;;;23.25;19.00;;;;;22.95;47.17;101504.53;5082165;27;51889;-55
2021/09/03 07:03:58;;;;;;;;;19.00;17.25;;;;;22.96;46.78;101507.09;5076124;27;51031;-55
2021/09/03 07:06:24;;;;;;;;;19.50;19.50;;;;;22.97;47.23;101506.00;5078826;27;51147;-54
2021/09/03 07:08:49;;;;;;;;;21.75;19.50;;;;;22.98;46.54;101507.69;5084078;27;50934;-55
2021/09/03 07:11:15;;;;;;;;;17.50;17.50;;;;;22.99;46.50;101506.63;5095913;27;52104;-55
2021/09/03 07:13:40;;;;;;;;;21.25;18.25;;;;;22.99;46.62;101503.84;5090828;27;51148;-54
2021/09/03 07:16:06;;;;;;;;;20.50;17.75;;;;;23.00;46.87;101500.03;5088442;27;51024;-54
2021/09/03 07:18:31;;;;;;;;;21.50;20.00;;;;;23.02;46.82;101497.03;5093278;27;51315;-56
2021/09/03 07:20:57;;;;;;;;;23.00;21.50;;;;;23.03;47.33;101502.38;5093688;27;54375;-54
2021/09/03 07:23:22;;;;;;;;;17.50;17.00;;;;;23.06;46.70;101502.97;5091737;27;51658;-55
2021/09/03 07:25:48;;;;;;;;;18.75;15.00;;;;;23.07;47.29;101496.38;5088761;27;51142;-56
2021/09/03 07:28:13;;;;;;;;;21.00;17.25;;;;;;;;5087964;27;51037;-56
2021/09/03 07:30:39;;;;;;;;;17.25;16.50;;;;;23.12;47.18;101496.53;5077105;27;51857;-56
2021/09/03 07:33:04;;;;;;;;;18.25;16.00;;;;;23.13;47.14;101499.06;5093923;27;51025;-56
2021/09/03 07:35:29;;;;;;;;;17.00;16.50;;;;;23.16;46.78;101493.13;5079335;27;51341;-56
2021/09/03 07:37:56;;;;;;;;;18.25;15.75;;;;;23.19;46.54;101500.94;5087737;27;51017;-55
2021/09/03 07:40:22;;;;;;;;;20.00;17.75;;;;;23.20;46.66;101496.28;5076763;27;51111;-56
2021/09/03 07:42:48;;;;;;;;;17.50;14.25;;;;;23.22;46.59;101496.88;5088811;27;51116;-56
2021/09/03 07:45:13;;;;;;;;;18.75;16.75;;;;;23.23;46.64;101496.66;5093617;27;51194;-56
2021/09/03 07:47:38;;;;;;;;;15.50;14.00;;;;;23.25;46.32;101505.59;5087789;27;51870;-56
2021/09/03 07:50:04;;;;;;;;;17.50;13.50;;;;;23.26;46.50;101500.91;5084356;27;51029;-56
2021/09/03 07:52:30;;;;;;;;;17.25;16.50;;;;;23.26;46.84;101495.38;5081413;27;50980;-58
2021/09/03 07:54:55;;;;;;;;;18.00;16.75;;;;;23.27;46.80;101502.59;5076680;27;51270;-56
2021/09/03 07:57:20;;;;;;;;;21.75;20.00;;;;;23.28;46.87;101502.38;5091375;27;51367;-56
2021/09/03 07:59:46;;;;;;;;;17.50;17.00;;;;;23.29;46.79;101504.06;5062135;27;52904;-56
2021/09/03 08:02:11;;;;;;;;;18.50;17.00;;;;;23.31;46.82;101503.84;5085331;27;51095;-56
2021/09/03 08:04:36;;;;;;;;;14.25;14.25;;;;;23.35;46.19;101493.19;5076331;27;51295;-57
2021/09/03 08:07:02;;;;;;;;;17.75;16.00;;;;;23.36;46.85;101495.72;5089348;27;50972;-56
2021/09/03 08:09:27;;;;;;;;;14.25;14.00;;;;;23.38;46.15;101498.25;5092615;27;51295;-56
2021/09/03 08:11:52;;;;;;;;;19.00;15.25;;;;;23.39;46.18;101495.25;5083015;27;51170;-56
2021/09/03 08:14:18;;;;;;;;;16.50;14.75;;;;;23.41;46.45;101498.63;5089672;27;51136;-57
2021/09/03 08:16:43;;;;;;;;;17.25;15.25;;;;;23.44;46.95;101505.63;5087769;27;51146;-56
2021/09/03 08:19:09;;;;;;;;;19.25;16.75;;;;;23.43;46.44;101507.56;5085712;27;51070;-56
2021/09/03 08:21:35;;;;;;;;;16.50;15.25;;;;;23.46;46.43;101496.06;5082421;27;51452;-57
2021/09/03 08:24:01;;;;;;;;;18.50;14.75;;;;;23.48;46.07;101499.44;5091815;27;51442;-56
2021/09/03 08:26:26;;;;;;;;;14.25;13.00;;;;;23.50;45.95;101496.44;5089086;27;51131;-56
2021/09/03 08:28:52;;;;;;;;;16.25;14.25;;;;;23.51;46.25;101501.75;5080884;27;52664;-56
2021/09/03 08:31:18;;;;;;;;;15.25;14.75;;;;;23.53;46.52;101496.81;5084553;27;51191;-56
2021/09/03 08:33:44;;;;;;;;;15.25;15.00;;;;;23.56;46.22;101492.78;5092645;27;51293;-56
2021/09/03 08:36:09;;;;;;;;;19.00;15.00;;;;;23.56;46.58;101488.09;5093862;27;51085;-58
2021/09/03 08:38:35;;;;;;;;;15.50;15.50;;;;;23.59;46.71;101484.91;5080107;27;51072;-57
2021/09/03 08:41:00;;;;;;;;;19.25;16.00;;;;;23.60;46.24;101483.81;5092489;27;51083;-56
2021/09/03 08:43:26;;;;;;;;;22.00;15.00;;;;;23.63;46.07;101487.19;5089714;27;50999;-57
2021/09/03 08:45:53;;;;;;;;;17.75;15.50;;;;;23.65;46.10;101493.34;5069925;28;51191;-57
2021/09/03 08:48:23;;;;;;;;;18.75;16.50;;;;;23.66;46.62;101481.22;5074422;27;51169;-55
2021/09/03 08:50:53;;;;;;;;;15.00;13.00;;;;;23.67;46.50;101480.16;5092546;27;51085;-56
2021/09/03 08:53:20;;;;;;;;;19.50;15.25;;;;;23.70;46.49;101479.69;5077896;27;51062;-56
2021/09/03 08:55:47;;;;;;;;;16.50;15.00;;;;;23.72;46.19;101480.28;5076051;27;51421;-56
2021/09/03 08:58:13;;;;;;;;;17.00;15.75;;;;;23.74;46.20;101476.22;5074607;27;50987;-56
2021/09/03 09:00:39;;;;;;;;;17.00;15.00;;;;;23.75;46.39;101483.44;5074599;27;51282;-56
2021/09/03 09:03:13;;;;;;;;;16.50;14.50;;;;;23.77;45.78;101481.31;5075654;27;51777;-54
2021/09/03 09:05:51;;;;;;;;;19.75;17.50;;;;;23.79;46.25;101473.63;5075012;28;51355;-55
2021/09/03 09:08:19;;;;;;;;;16.00;13.50;;;;;23.80;46.32;101480.00;5076764;27;51474;-56
2021/09/03 09:10:53;;;;;;;;;17.50;15.25;;;;;23.81;45.93;101478.94;5078752;27;51461;-56
2021/09/03 09:13:24;;;;;;;;;19.75;12.75;;;;;23.82;45.86;101469.53;5080346;27;51198;-55
2021/09/03 09:16:06;;;;;;;;;12.75;12.75;;;;;23.83;45.66;101474.00;5092860;27;51288;-56
2021/09/03 09:18:38;;;;;;;;;9.25;9.25;;;;;23.85;45.94;101492.06;5082106;27;51131;-56
2021/09/03 09:21:26;;;;;;;;;17.25;15.25;;;;;23.86;45.31;101479.94;5085820;27;51594;-56
2021/09/03 09:24:09;;;;;;;;;17.00;16.50;;;;;23.87;45.91;101476.09;5089716;27;51275;-55
2021/09/03 09:26:56;;;;;;;;;21.00;14.50;;;;;23.89;45.40;101468.41;5081498;27;51083;-56
2021/09/03 09:29:24;;;;;;;;;15.75;14.75;;;;;23.92;45.58;101472.63;5086209;27;52871;-55
2021/09/03 09:31:53;;;;;;;;;21.50;19.75;;;;;23.94;45.32;101473.25;5091258;27;51009;-56
2021/09/03 09:34:20;;;;;;;;;18.75;17.25;;;;;23.95;45.70;101480.47;5078562;27;51072;-53
2021/09/03 09:36:48;;;;;;;;;17.50;16.50;;;;;23.96;45.11;101473.84;5085195;27;51470;-54
2021/09/03 09:39:14;;;;;;;;;23.25;18.00;;;;;23.97;45.35;101472.78;5088358;27;51168;-56
2021/09/03 09:41:39;;;;;;;;;15.75;14.50;;;;;23.99;45.59;101467.03;5093830;27;50933;-56
2021/09/03 09:44:05;;;;;;;;;19.50;16.50;;;;;23.99;45.03;101462.34;5083432;27;51035;-55
2021/09/03 09:46:32;;;;;;;;;17.50;15.50;;;;;24.01;45.25;101462.09;5080911;27;51099;-55
2021/09/03 09:49:23;;;;;;;;;18.25;16.25;;;;;24.03;45.04;101465.47;5083434;27;51144;-56
2021/09/03 09:51:48;;;;;;;;;15.50;13.75;;;;;24.04;45.03;101456.09;5052447;27;51012;-56
2021/09/03 09:54:21;;;;;;;;;16.75;16.50;;;;;24.04;44.94;101443.09;5083031;27;51261;-56
2021/09/03 09:57:06;;;;;;;;;14.25;13.50;;;;;24.06;45.13;101446.47;5090699;27;51071;-56
2021/09/03 09:59:34;;;;;;;;;19.00;16.25;;;;;24.08;44.87;101447.13;5096117;27;51645;-56
2021/09/03 10:02:02;;;;;;;;;15.00;13.25;;;;;24.10;45.08;101438.56;5094101;27;51317;-53
2021/09/03 10:04:30;;;;;;;;;17.25;13.50;;;;;24.11;44.69;101432.81;5089238;27;51318;-56
2021/09/03 10:06:59;;;;;;;;;14.00;14.00;;;;;24.13;45.06;101430.63;5095314;27;51200;-55
2021/09/03 10:09:27;;;;;;;;;12.50;12.50;;;;;24.14;45.05;101425.94;5093575;27;51727;-56
2021/09/03 10:11:55;;;;;;;;;12.25;12.00;;;;;24.15;45.15;101422.94;5088486;27;52215;-53
2021/09/03 10:14:24;;;;;;;;;17.00;15.00;;;;;24.18;45.04;101418.88;5080393;27;51238;-56
2021/09/03 10:16:51;;;;;;;;;14.00;11.75;;;;;24.19;45.04;101424.19;5083993;27;51261;-55
2021/09/03 10:19:22;;;;;;;;;14.00;12.00;;;;;24.20;45.24;101427.78;5087586;27;51081;-57
2021/09/03 10:21:48;;;;;;;;;12.75;11.50;;;;;24.23;45.13;101421.78;5086437;27;51391;-56
2021/09/03 10:24:23;;;;;;;;;15.00;10.75;;;;;24.24;45.16;101417.94;5092097;27;51106;-56
2021/09/03 10:26:51;;;;;;;;;14.00;12.50;;;;;24.24;45.42;101426.25;5083589;27;51307;-56
2021/09/03 10:29:19;;;;;;;;;12.50;11.25;;;;;24.26;44.82;101420.47;5089780;27;52152;-56
2021/09/03 10:32:06;;;;;;;;;16.50;13.50;;;;;24.29;45.26;101425.56;5086182;27;51498;-55
2021/09/03 10:34:40;;;;;;;;;12.25;11.50;;;;;24.30;45.20;101425.31;5086191;27;51447;-54
2021/09/03 10:37:12;;;;;;;;;19.75;15.50;;;;;24.31;45.20;101424.25;5086552;27;51082;-55
2021/09/03 10:39:46;;;;;;;;;44.00;36.25;;;;;24.32;45.31;101425.09;5086522;27;52601;-57
2021/09/03 10:42:34;;;;;;;;;45.00;36.75;;;;;24.34;45.41;101431.25;5083283;27;50971;-54
2021/09/03 10:45:03;;;;;;;;;51.25;38.25;;;;;24.37;45.33;101433.53;5078613;27;51194;-54
2021/09/03 10:47:41;;;;;;;;;49.75;39.00;;;;;24.38;45.48;101422.22;5071970;27;51769;-56
2021/09/03 10:50:14;;;;;;;;;47.25;38.00;;;;;24.40;45.87;101420.09;5064048;27;51907;-55
2021/09/03 10:52:39;;;;;;;;;42.50;34.75;;;;;24.43;45.64;101413.25;5067935;28;51574;-54
2021/09/03 10:55:08;;;;;;;;;38.75;33.25;;;;;24.44;45.49;101412.16;5071313;27;51084;-55
2021/09/03 10:57:57;;;;;;;;;40.50;31.75;;;;;24.46;45.48;101413.59;5067036;28;51302;-55
2021/09/03 11:00:24;;;;;;;;;32.25;29.50;;;;;24.48;45.59;101408.66;5063832;28;52252;-54
2021/09/03 11:02:49;;;;;;;;;40.25;29.50;;;;;24.50;45.60;101408.44;5067491;28;51389;-52
2021/09/03 11:05:14;;;;;;;;;31.50;28.75;;;;;24.51;45.26;101401.00;5069606;27;51146;-55
2021/09/03 11:07:44;;;;;;;;;29.25;26.50;;;;;24.52;45.58;101400.75;5073721;27;51422;-56